Time;durP1;ratioP1;P1;durP2;ratioP2;P2;SDS_P1;SDS_P2;PMS_P1;PMS_P2;Temp;Humidity;BMP_temperature;BMP_pressure;BME280_temperature;BME280_humidity;BME280_pressure;Samples;Min_cycle;Max_cycle;Signal;HPM_P1;HPM_P2
2022/09/04 00:00:36;;;;;;;2.53;0.57;;;17.10;95.70;;;;;;4264408;33;19956;-76
2022/09/04 00:03:16;;;;;;;0.35;0.35;;;17.00;95.70;;;;;;4264206;33;20093;-76
2022/09/04 00:05:52;;;;;;;0.30;0.30;;;17.00;95.80;;;;;;4264158;33;20537;-76
2022/09/04 00:08:41;;;;;;;0.30;0.30;;;16.90;95.90;;;;;;4266224;33;20072;-76
2022/09/04 00:11:33;;;;;;;0.45;0.45;;;17.00;95.90;;;;;;4262732;33;20153;-76
2022/09/04 00:14:02;;;;;;;0.45;0.45;;;16.90;96.00;;;;;;4250576;33;20093;-76
2022/09/04 00:16:53;;;;;;;0.40;0.40;;;16.90;96.10;;;;;;4262789;33;20114;-75
2022/09/04 00:19:24;;;;;;;;;;;16.90;96.10;;;;;;4251640;33;20155;-75
2022/09/04 00:21:56;;;;;;;0.37;0.37;;;16.90;96.20;;;;;;4262964;33;19949;-75
2022/09/04 00:24:26;;;;;;;0.37;0.37;;;16.80;96.30;;;;;;4263632;33;20102;-74
2022/09/04 00:27:16;;;;;;;0.32;0.32;;;16.80;96.40;;;;;;4263256;33;20092;-75
2022/09/04 00:29:53;;;;;;;3.47;0.60;;;16.70;96.50;;;;;;4243562;33;20089;-77
2022/09/04 00:32:28;;;;;;;0.50;0.50;;;16.70;96.50;;;;;;4261787;33;20078;-77
2022/09/04 00:35:19;;;;;;;0.40;0.40;;;16.70;96.60;;;;;;4264263;33;20088;-77
2022/09/04 00:38:07;;;;;;;0.30;0.30;;;16.60;96.80;;;;;;4263567;33;20069;-77
2022/09/04 00:40:40;;;;;;;0.80;0.80;;;16.50;96.90;;;;;;4254807;33;20089;-77
2022/09/04 00:43:18;;;;;;;0.30;0.30;;;16.60;97.00;;;;;;4264167;33;20078;-77
2022/09/04 00:46:16;;;;;;;0.37;0.37;;;16.60;97.00;;;;;;4263763;33;20076;-77
2022/09/04 00:48:56;;;;;;;0.60;0.60;;;16.50;97.10;;;;;;4252827;33;20506;-77
2022/09/04 00:52:01;;;;;;;0.30;0.30;;;16.50;97.20;;;;;;4261315;33;20097;-77
2022/09/04 00:54:54;;;;;;;0.50;0.50;;;16.50;97.20;;;;;;4253140;33;20088;-76
2022/09/04 00:57:40;;;;;;;0.30;0.30;;;16.60;97.30;;;;;;4259118;33;20102;-76
2022/09/04 01:00:13;;;;;;;1.30;0.50;;;16.60;97.40;;;;;;4261349;33;20105;-75
2022/09/04 01:03:18;;;;;;;1.25;0.73;;;16.50;97.40;;;;;;4264519;33;20069;-76
2022/09/04 01:06:23;;;;;;;0.52;0.40;;;16.50;97.40;;;;;;4256249;33;20411;-76
2022/09/04 01:09:10;;;;;;;5.82;1.75;;;16.50;97.50;;;;;;4247395;33;20077;-76
2022/09/04 01:12:12;;;;;;;0.40;0.40;;;16.50;97.60;;;;;;4265675;33;20069;-76
2022/09/04 01:14:44;;;;;;;0.40;0.40;;;16.50;97.70;;;;;;4254890;33;20097;-76
2022/09/04 01:17:28;;;;;;;1.08;0.62;;;16.40;97.70;;;;;;4265048;33;20070;-76
2022/09/04 01:20:11;;;;;;;0.40;0.40;;;16.50;97.70;;;;;;4264063;33;20094;-75
2022/09/04 01:22:53;;;;;;;1.00;0.40;;;16.40;97.90;;;;;;4264464;33;20090;-76
2022/09/04 01:25:31;;;;;;;0.40;0.40;;;16.30;98.10;;;;;;4262741;33;20150;-76
2022/09/04 01:28:03;;;;;;;0.20;0.20;;;16.30;98.10;;;;;;4250983;33;20096;-76
2022/09/04 01:30:36;;;;;;;0.35;0.35;;;16.30;98.30;;;;;;4263924;33;20064;-76
2022/09/04 01:33:12;;;;;;;0.40;0.40;;;16.40;98.20;;;;;;4265964;33;20513;-76
2022/09/04 01:36:03;;;;;;;0.30;0.30;;;16.30;98.20;;;;;;4267827;33;20660;-76
2022/09/04 01:38:58;;;;;;;0.40;0.40;;;16.30;98.30;;;;;;4256190;33;20081;-76
2022/09/04 01:41:29;;;;;;;0.20;0.20;;;16.20;98.40;;;;;;4255107;33;20121;-76
2022/09/04 01:43:55;;;;;;;0.30;0.30;;;16.20;98.60;;;;;;4265560;33;20399;-75
2022/09/04 01:46:32;;;;;;;0.55;0.55;;;16.20;98.50;;;;;;4264113;33;20064;-76
2022/09/04 01:49:08;;;;;;;0.45;0.45;;;16.10;98.60;;;;;;4262752;33;20081;-76
2022/09/04 01:51:58;;;;;;;0.40;0.40;;;16.10;99.00;;;;;;4263243;33;20084;-76
2022/09/04 01:54:50;;;;;;;0.77;0.77;;;16.10;98.70;;;;;;4254721;33;20073;-76
2022/09/04 01:57:30;;;;;;;0.30;0.30;;;16.00;98.90;;;;;;4249032;33;20598;-76
2022/09/04 02:00:18;;;;;;;0.40;0.33;;;16.00;98.90;;;;;;4259526;33;20073;-76
2022/09/04 02:03:23;;;;;;;0.40;0.40;;;15.90;99.00;;;;;;4254594;33;20130;-76
2022/09/04 02:06:29;;;;;;;0.55;0.50;;;16.00;99.00;;;;;;4257991;33;20423;-76
2022/09/04 02:09:29;;;;;;;2.22;0.95;;;15.90;99.20;;;;;;4257493;33;20077;-76
2022/09/04 02:12:25;;;;;;;0.60;0.60;;;16.00;99.10;;;;;;4254829;33;20064;-76
2022/09/04 02:15:09;;;;;;;0.50;0.50;;;15.90;99.10;;;;;;4253530;33;20068;-76
2022/09/04 02:17:49;;;;;;;0.40;0.40;;;15.90;99.20;;;;;;4264510;33;20085;-76
2022/09/04 02:20:26;;;;;;;0.50;0.50;;;15.90;99.20;;;;;;4264464;33;20068;-76
2022/09/04 02:23:15;;;;;;;0.40;0.40;;;15.80;99.30;;;;;;4264216;33;20073;-76
2022/09/04 02:25:49;;;;;;;0.43;0.43;;;15.80;99.30;;;;;;4264670;33;20065;-76
2022/09/04 02:28:18;;;;;;;0.52;0.43;;;15.80;99.30;;;;;;4249571;33;20525;-76
2022/09/04 02:31:06;;;;;;;0.50;0.50;;;15.80;99.50;;;;;;4264747;33;20076;-76
2022/09/04 02:33:43;;;;;;;0.30;0.30;;;15.70;99.50;;;;;;4253897;33;20101;-76
2022/09/04 02:36:48;;;;;;;0.43;0.43;;;15.80;99.50;;;;;;4263820;33;20085;-76
2022/09/04 02:39:44;;;;;;;0.30;0.30;;;15.80;99.40;;;;;;4253229;33;20130;-76
2022/09/04 02:42:39;;;;;;;0.30;0.30;;;15.80;99.40;;;;;;4255898;33;20081;-76
2022/09/04 02:45:08;;;;;;;0.20;0.20;;;15.80;99.50;;;;;;4254478;33;20076;-76
2022/09/04 02:48:02;;;;;;;0.55;0.55;;;15.70;99.70;;;;;;4265010;33;20105;-75
2022/09/04 02:50:56;;;;;;;0.60;0.60;;;15.70;99.70;;;;;;4263888;33;20076;-76
2022/09/04 02:53:37;;;;;;;0.30;0.30;;;15.80;99.60;;;;;;4254443;33;20068;-76
2022/09/04 02:56:08;;;;;;;0.40;0.40;;;15.80;99.40;;;;;;4264134;33;20415;-76
2022/09/04 02:58:48;;;;;;;0.28;0.28;;;15.80;99.70;;;;;;4253640;33;20085;-76
2022/09/04 03:01:26;;;;;;;0.37;0.37;;;15.80;99.50;;;;;;4266056;33;20082;-76
2022/09/04 03:04:14;;;;;;;0.30;0.30;;;15.80;99.60;;;;;;4266047;33;20085;-76
2022/09/04 03:06:48;;;;;;;0.20;0.20;;;15.80;99.60;;;;;;4253628;33;20080;-76
2022/09/04 03:09:23;;;;;;;0.30;0.30;;;15.80;99.60;;;;;;4252954;33;20077;-76
2022/09/04 03:12:13;;;;;;;0.40;0.40;;;15.80;99.60;;;;;;4264306;33;20093;-76
2022/09/04 03:14:47;;;;;;;0.40;0.40;;;15.80;99.70;;;;;;4253026;33;20553;-76
2022/09/04 03:17:39;;;;;;;0.40;0.40;;;15.70;99.70;;;;;;4264063;33;20090;-76
2022/09/04 03:20:21;;;;;;;0.30;0.30;;;15.70;99.70;;;;;;4253435;33;20445;-76
2022/09/04 03:22:55;;;;;;;0.40;0.40;;;15.70;99.80;;;;;;4264475;33;20141;-76
2022/09/04 03:25:43;;;;;;;0.30;0.30;;;15.60;99.80;;;;;;4265366;33;20082;-76
2022/09/04 03:28:19;;;;;;;0.37;0.37;;;15.60;99.80;;;;;;4235755;33;20533;-76
2022/09/04 03:30:46;;;;;;;0.20;0.20;;;15.60;99.90;;;;;;4264518;33;20089;-76
2022/09/04 03:33:23;;;;;;;0.40;0.40;;;15.50;99.80;;;;;;4265060;33;20068;-76
2022/09/04 03:35:58;;;;;;;0.30;0.30;;;15.50;99.90;;;;;;4266393;33;20122;-76
2022/09/04 03:38:48;;;;;;;0.68;0.68;;;15.50;99.90;;;;;;4264764;33;20585;-76
2022/09/04 03:41:41;;;;;;;0.28;0.28;;;15.50;99.90;;;;;;4252263;33;20541;-76
2022/09/04 03:44:35;;;;;;;0.30;0.30;;;15.60;99.90;;;;;;4263595;33;20135;-76
2022/09/04 03:47:08;;;;;;;1.60;0.47;;;15.60;99.90;;;;;;4253962;33;20423;-76
2022/09/04 03:50:01;;;;;;;0.30;0.30;;;15.60;99.90;;;;;;4264010;33;20427;-76
2022/09/04 03:52:40;;;;;;;0.30;0.30;;;15.60;99.90;;;;;;4253075;33;20139;-76
2022/09/04 03:55:27;;;;;;;0.30;0.30;;;15.50;99.90;;;;;;4263856;33;20073;-76
2022/09/04 03:58:09;;;;;;;0.40;0.40;;;15.50;99.90;;;;;;4240737;33;20545;-76
2022/09/04 04:01:16;;;;;;;0.30;0.30;;;15.40;99.90;;;;;;4264368;33;20521;-76
2022/09/04 04:03:58;;;;;;;0.40;0.40;;;15.40;99.90;;;;;;4252316;33;20131;-76
2022/09/04 04:06:47;;;;;;;0.30;0.30;;;15.40;99.90;;;;;;4263509;33;20081;-76
2022/09/04 04:09:34;;;;;;;0.30;0.30;;;15.40;99.90;;;;;;4262284;33;20455;-76
2022/09/04 04:12:29;;;;;;;0.25;0.25;;;15.40;99.90;;;;;;4264535;33;20080;-76
2022/09/04 04:15:19;;;;;;;0.40;0.40;;;15.50;99.90;;;;;;4263501;33;20073;-76
2022/09/04 04:18:02;;;;;;;0.55;0.55;;;15.40;99.90;;;;;;4263163;33;20416;-76
2022/09/04 04:20:51;;;;;;;0.30;0.30;;;15.40;99.90;;;;;;4265035;33;20076;-76
2022/09/04 04:23:28;;;;;;;0.40;0.40;;;15.30;99.90;;;;;;4253861;33;20534;-76
2022/09/04 04:26:06;;;;;;;0.30;0.30;;;15.30;99.90;;;;;;4263558;33;20089;-76
2022/09/04 04:28:50;;;;;;;0.40;0.40;;;15.20;99.90;;;;;;4249847;33;20375;-76
2022/09/04 04:32:09;;;;;;;0.30;0.30;;;15.20;99.90;;;;;;4265565;33;20205;-76
2022/09/04 04:34:41;;;;;;;0.30;0.30;;;15.10;99.90;;;;;;4255434;33;20081;-76
2022/09/04 04:37:15;;;;;;;0.32;0.32;;;15.20;99.90;;;;;;4265926;33;20090;-76
2022/09/04 04:40:01;;;;;;;0.20;0.20;;;15.20;99.90;;;;;;4265079;33;20085;-76
2022/09/04 04:42:33;;;;;;;0.30;0.30;;;15.10;99.90;;;;;;4266037;33;20069;-76
2022/09/04 04:45:57;;;;;;;0.30;0.30;;;15.10;99.90;;;;;;4268092;33;20077;-76
2022/09/04 04:48:40;;;;;;;0.40;0.40;;;15.10;99.90;;;;;;4248144;33;20101;-76
2022/09/04 04:51:38;;;;;;;0.57;0.57;;;15.10;99.90;;;;;;4263043;33;20077;-76
2022/09/04 04:54:43;;;;;;;0.35;0.35;;;15.10;99.90;;;;;;4255855;33;20960;-76
2022/09/04 04:57:25;;;;;;;0.35;0.35;;;15.10;99.90;;;;;;4252938;33;20089;-76
2022/09/04 05:00:18;;;;;;;0.30;0.30;;;15.10;99.90;;;;;;4260787;33;20073;-76
2022/09/04 05:03:17;;;;;;;0.45;0.45;;;15.00;99.90;;;;;;4255809;33;20448;-76
2022/09/04 05:06:09;;;;;;;0.40;0.40;;;15.00;99.90;;;;;;4253878;33;20174;-76
2022/09/04 05:09:14;;;;;;;0.47;0.30;;;15.00;99.90;;;;;;4255801;33;20552;-76
2022/09/04 05:12:02;;;;;;;0.28;0.28;;;15.00;99.90;;;;;;4247508;33;20243;-76
2022/09/04 05:14:51;;;;;;;0.43;0.43;;;14.90;99.90;;;;;;4265905;33;20080;-75
2022/09/04 05:17:41;;;;;;;0.30;0.30;;;14.90;99.90;;;;;;4255075;33;20080;-76
2022/09/04 05:20:28;;;;;;;1.35;0.45;;;14.90;99.90;;;;;;4262351;33;20073;-76
2022/09/04 05:23:20;;;;;;;1.27;0.93;;;14.90;99.90;;;;;;4252025;33;20085;-76
2022/09/04 05:26:10;;;;;;;0.73;0.37;;;14.90;99.90;;;;;;4257739;33;20086;-76
2022/09/04 05:29:15;;;;;;;0.25;0.25;;;15.00;99.90;;;;;;4248882;33;20073;-75
2022/09/04 05:31:52;;;;;;;3.33;1.10;;;15.00;99.90;;;;;;4257159;33;20533;-75
2022/09/04 05:34:44;;;;;;;0.30;0.30;;;14.90;99.90;;;;;;4263445;33;20424;-77
2022/09/04 05:37:18;;;;;;;0.20;0.20;;;14.90;99.90;;;;;;4253137;33;20529;-76
2022/09/04 05:40:03;;;;;;;0.60;0.60;;;14.90;99.90;;;;;;4265648;33;20095;-76
2022/09/04 05:42:57;;;;;;;0.37;0.37;;;15.00;99.90;;;;;;4265034;33;20088;-76
2022/09/04 05:45:39;;;;;;;0.50;0.50;;;15.00;99.90;;;;;;4253789;33;20073;-76
2022/09/04 05:48:29;;;;;;;0.30;0.30;;;15.00;99.90;;;;;;4264424;33;20123;-75
2022/09/04 05:51:35;;;;;;;1.15;0.50;;;15.00;99.90;;;;;;4255592;33;20117;-76
2022/09/04 05:54:29;;;;;;;0.30;0.30;;;15.10;99.90;;;;;;4248325;33;20420;-76
2022/09/04 05:57:20;;;;;;;0.30;0.30;;;15.10;99.90;;;;;;4252379;33;20130;-76
2022/09/04 06:00:12;;;;;;;0.30;0.30;;;15.10;99.90;;;;;;4247005;33;20568;-76
2022/09/04 06:03:00;;;;;;;0.28;0.28;;;15.20;99.90;;;;;;4263306;33;20157;-76
2022/09/04 06:05:35;;;;;;;1.10;0.68;;;15.20;99.90;;;;;;4265254;33;20175;-76
2022/09/04 06:08:22;;;;;;;0.30;0.30;;;15.10;99.90;;;;;;4264451;33;20126;-76
2022/09/04 06:11:27;;;;;;;0.40;0.40;;;15.10;99.90;;;;;;4263280;33;20081;-76
2022/09/04 06:14:19;;;;;;;0.30;0.30;;;15.20;99.90;;;;;;4247421;33;20068;-76
2022/09/04 06:17:21;;;;;;;0.40;0.40;;;15.30;99.90;;;;;;4265194;33;20101;-76
2022/09/04 06:20:14;;;;;;;2.20;0.47;;;15.40;99.90;;;;;;4256576;33;20614;-76
2022/09/04 06:22:49;;;;;;;0.65;0.65;;;15.40;99.90;;;;;;4257819;33;20182;-76
2022/09/04 06:25:55;;;;;;;0.50;0.50;;;15.40;99.90;;;;;;4264245;33;20580;-76
2022/09/04 06:29:00;;;;;;;0.45;0.40;;;15.40;99.90;;;;;;4232050;33;20585;-75
2022/09/04 06:31:35;;;;;;;0.30;0.30;;;15.40;99.90;;;;;;4247340;33;20091;-75
2022/09/04 06:34:27;;;;;;;0.40;0.40;;;15.40;99.90;;;;;;4265588;33;20072;-75
2022/09/04 06:37:27;;;;;;;0.40;0.40;;;15.40;99.90;;;;;;4255704;33;20718;-75
2022/09/04 06:40:14;;;;;;;0.50;0.50;;;15.40;99.90;;;;;;4256260;33;20087;-76
2022/09/04 06:42:51;;;;;;;0.32;0.32;;;15.50;99.90;;;;;;4264791;33;20175;-75
2022/09/04 06:45:29;;;;;;;0.43;0.43;;;15.60;99.90;;;;;;4265716;33;20510;-75
2022/09/04 06:48:06;;;;;;;0.20;0.20;;;15.60;99.90;;;;;;4265265;33;20513;-75
2022/09/04 06:50:41;;;;;;;0.40;0.40;;;15.70;99.90;;;;;;4264006;33;20166;-75
2022/09/04 06:53:17;;;;;;;0.50;0.50;;;15.80;99.90;;;;;;4264647;33;20085;-75
2022/09/04 06:55:55;;;;;;;0.40;0.40;;;16.00;99.90;;;;;;4264619;33;20088;-75
2022/09/04 06:59:00;;;;;;;0.35;0.35;;;16.00;99.90;;;;;;4249999;33;20077;-75
2022/09/04 07:02:06;;;;;;;0.40;0.40;;;16.10;99.90;;;;;;4245376;33;20160;-75
2022/09/04 07:04:55;;;;;;;1.20;0.40;;;16.20;99.90;;;;;;4255408;33;20168;-76
2022/09/04 07:07:29;;;;;;;5.20;2.12;;;16.30;99.90;;;;;;4267211;33;20136;-76
2022/09/04 07:10:06;;;;;;;0.40;0.40;;;16.30;99.90;;;;;;4264916;33;20126;-76
2022/09/04 07:13:09;;;;;;;0.40;0.40;;;16.40;99.90;;;;;;4264171;33;20135;-76
2022/09/04 07:16:02;;;;;;;3.53;0.52;;;16.40;99.90;;;;;;4255487;33;20120;-76
2022/09/04 07:18:46;;;;;;;0.20;0.20;;;16.60;99.90;;;;;;4253707;33;20553;-75
2022/09/04 07:21:29;;;;;;;0.40;0.40;;;16.70;99.90;;;;;;4265312;33;20081;-76
2022/09/04 07:24:10;;;;;;;1.65;0.85;;;16.80;99.90;;;;;;4264073;33;20277;-75
2022/09/04 07:26:49;;;;;;;0.60;0.60;;;16.90;99.90;;;;;;4262693;33;20093;-76
2022/09/04 07:29:30;;;;;;;0.45;0.45;;;17.00;99.90;;;;;;4250460;33;20543;-75
2022/09/04 07:32:04;;;;;;;1.23;0.98;;;17.10;99.90;;;;;;4264336;33;20126;-76
2022/09/04 07:34:42;;;;;;;0.55;0.55;;;17.20;99.90;;;;;;4263743;33;20100;-75
2022/09/04 07:37:26;;;;;;;0.95;0.40;;;17.30;99.90;;;;;;4264717;33;20108;-76
2022/09/04 07:40:03;;;;;;;33.40;0.52;;;17.30;99.90;;;;;;4266145;33;20095;-76
2022/09/04 07:42:37;;;;;;;0.40;0.40;;;17.30;99.90;;;;;;4264485;33;20154;-76
2022/09/04 07:45:21;;;;;;;0.35;0.35;;;17.40;99.90;;;;;;4265592;33;20077;-75
2022/09/04 07:47:56;;;;;;;0.30;0.30;;;17.40;99.90;;;;;;4265986;33;20061;-75
2022/09/04 07:50:28;;;;;;;0.30;0.30;;;17.40;99.90;;;;;;4264735;33;20468;-75
2022/09/04 07:53:03;;;;;;;0.77;0.55;;;17.50;99.90;;;;;;4265272;33;20073;-75
2022/09/04 07:55:46;;;;;;;0.37;0.37;;;17.60;99.90;;;;;;4264859;33;20081;-76
2022/09/04 07:58:33;;;;;;;0.32;0.32;;;17.70;99.90;;;;;;4237408;33;20979;-76
2022/09/04 08:01:27;;;;;;;0.43;0.43;;;17.70;99.90;;;;;;4265791;33;20097;-77
2022/09/04 08:04:14;;;;;;;0.20;0.20;;;17.80;99.90;;;;;;4254144;33;20080;-76
2022/09/04 08:06:48;;;;;;;0.30;0.30;;;17.90;99.90;;;;;;4263292;33;20112;-77
2022/09/04 08:09:50;;;;;;;0.30;0.30;;;18.00;99.90;;;;;;4264421;33;20089;-76
2022/09/04 08:12:31;;;;;;;1.20;1.10;;;18.10;99.90;;;;;;4255300;33;20526;-76
2022/09/04 08:15:03;;;;;;;;;;;18.20;99.90;;;;;;4264061;33;20084;-76
2022/09/04 08:17:41;;;;;;;0.40;0.40;;;18.40;99.90;;;;;;4263445;33;19996;-76
2022/09/04 08:20:48;;;;;;;1.08;0.57;;;18.50;99.90;;;;;;4264565;33;20093;-76
2022/09/04 08:23:41;;;;;;;0.40;0.40;;;18.70;99.90;;;;;;4253284;33;20344;-76
2022/09/04 08:26:33;;;;;;;0.52;0.52;;;18.80;99.90;;;;;;4264691;33;20148;-76
2022/09/04 08:29:31;;;;;;;0.40;0.40;;;18.80;99.90;;;;;;4241791;33;20086;-77
2022/09/04 08:32:18;;;;;;;0.80;0.57;;;18.90;99.90;;;;;;4253628;33;133067;-77
2022/09/04 08:35:05;;;;;;;0.40;0.40;;;18.90;99.90;;;;;;4254551;33;20069;-77
2022/09/04 08:37:58;;;;;;;0.52;0.52;;;19.00;99.90;;;;;;4254901;33;20061;-77
2022/09/04 08:41:05;;;;;;;0.35;0.35;;;19.20;99.90;;;;;;4255860;33;20097;-76
2022/09/04 08:44:03;;;;;;;0.50;0.50;;;19.20;99.90;;;;;;4253477;33;20512;-77
2022/09/04 08:46:47;;;;;;;0.47;0.47;;;19.30;99.90;;;;;;4250934;33;20085;-76
2022/09/04 08:49:43;;;;;;;0.40;0.40;;;19.40;99.90;;;;;;4266120;33;20091;-76
2022/09/04 08:52:25;;;;;;;0.40;0.40;;;19.40;99.60;;;;;;4253383;33;20167;-76
2022/09/04 08:55:31;;;;;;;0.40;0.40;;;19.50;99.80;;;;;;4263172;33;20508;-77
2022/09/04 08:58:24;;;;;;;0.43;0.40;;;19.70;99.50;;;;;;4242876;33;20195;-76
2022/09/04 09:01:17;;;;;;;0.47;0.47;;;19.90;99.30;;;;;;4252820;33;20138;-76
2022/09/04 09:04:07;;;;;;;0.82;0.82;;;20.10;99.20;;;;;;4255250;33;20073;-75
2022/09/04 09:07:13;;;;;;;0.20;0.20;;;20.20;98.70;;;;;;4253345;33;20101;-76
2022/09/04 09:10:15;;;;;;;0.40;0.40;;;20.30;98.60;;;;;;4243743;33;20073;-76
2022/09/04 09:13:19;;;;;;;0.30;0.30;;;20.40;98.40;;;;;;4252922;33;20069;-75
2022/09/04 09:16:15;;;;;;;0.40;0.40;;;20.60;97.90;;;;;;4253219;33;20073;-75
2022/09/04 09:19:21;;;;;;;0.30;0.30;;;20.70;97.70;;;;;;4252993;33;20082;-76
2022/09/04 09:22:09;;;;;;;0.40;0.40;;;20.70;98.00;;;;;;4255826;33;20471;-76
2022/09/04 09:24:58;;;;;;;0.60;0.40;;;21.00;97.30;;;;;;4256174;33;20112;-76
2022/09/04 09:27:48;;;;;;;0.62;0.52;;;21.00;96.90;;;;;;4258664;33;20241;-76
2022/09/04 09:30:22;;;;;;;0.40;0.40;;;21.20;96.90;;;;;;4251937;33;20142;-75
2022/09/04 09:33:04;;;;;;;0.43;0.43;;;21.30;96.20;;;;;;4264559;33;20084;-75
2022/09/04 09:35:51;;;;;;;0.30;0.30;;;21.40;96.10;;;;;;4264959;33;20130;-76
2022/09/04 09:38:48;;;;;;;21.73;1.25;;;21.30;95.90;;;;;;4255552;33;20118;-77
2022/09/04 09:41:30;;;;;;;0.65;0.65;;;21.40;95.50;;;;;;4266851;33;20069;-76
2022/09/04 09:44:20;;;;;;;0.20;0.20;;;21.50;95.80;;;;;;4260014;33;20546;-76
2022/09/04 09:47:15;;;;;;;0.40;0.40;;;21.70;95.40;;;;;;4264180;33;20089;-77
2022/09/04 09:50:20;;;;;;;3.60;1.25;;;22.00;94.90;;;;;;4253305;33;20085;-77
2022/09/04 09:52:59;;;;;;;1.45;0.77;;;22.00;94.40;;;;;;4256411;33;20086;-76
2022/09/04 09:55:52;;;;;;;0.55;0.55;;;22.10;94.60;;;;;;4264507;33;20078;-76
2022/09/04 09:58:46;;;;;;;0.30;0.30;;;22.10;94.60;;;;;;4240948;33;20076;-77
2022/09/04 10:01:51;;;;;;;0.30;0.30;;;22.40;94.30;;;;;;4254294;33;20065;-77
2022/09/04 10:04:56;;;;;;;0.32;0.32;;;22.60;93.80;;;;;;4246964;33;20889;-77
2022/09/04 10:07:56;;;;;;;0.20;0.20;;;22.80;93.60;;;;;;4255944;33;20500;-77
2022/09/04 10:11:02;;;;;;;0.40;0.40;;;23.00;93.70;;;;;;4253841;33;20594;-76
2022/09/04 10:13:45;;;;;;;0.40;0.40;;;23.10;93.50;;;;;;4245013;33;20081;-76
2022/09/04 10:16:23;;;;;;;0.40;0.40;;;23.00;92.60;;;;;;4266049;33;20499;-76
2022/09/04 10:19:10;;;;;;;0.30;0.30;;;23.20;93.00;;;;;;4264536;33;20076;-76
2022/09/04 10:22:09;;;;;;;2.20;0.95;;;23.30;92.70;;;;;;4255391;33;20073;-77
2022/09/04 10:25:12;;;;;;;0.37;0.37;;;23.50;92.50;;;;;;4245260;33;20109;-76
2022/09/04 10:28:10;;;;;;;0.40;0.40;;;23.50;92.30;;;;;;4246095;33;20104;-76
2022/09/04 10:31:06;;;;;;;0.43;0.40;;;23.70;92.20;;;;;;4263558;33;20098;-76
2022/09/04 10:33:59;;;;;;;0.28;0.28;;;24.10;91.70;;;;;;4257089;33;20535;-76
2022/09/04 10:36:35;;;;;;;2.95;1.08;;;24.00;91.40;;;;;;4254338;33;20065;-76
2022/09/04 10:40:53;;;;;;;0.90;0.47;;;23.90;90.90;;;;;;4264757;33;20093;-77
2022/09/04 10:42:19;;;;;;;0.30;0.30;;;24.10;91.40;;;;;;4253267;33;20139;-76
2022/09/04 10:45:24;;;;;;;0.30;0.30;;;24.20;91.00;;;;;;4265513;33;20145;-76
2022/09/04 10:48:06;;;;;;;0.28;0.28;;;24.30;90.90;;;;;;4255679;33;20116;-77
2022/09/04 10:51:11;;;;;;;0.30;0.30;;;24.40;90.60;;;;;;4262776;33;20108;-76
2022/09/04 10:54:16;;;;;;;0.30;0.30;;;24.50;90.50;;;;;;4254501;33;20535;-77
2022/09/04 10:56:54;;;;;;;0.45;0.45;;;24.70;90.50;;;;;;4254718;33;20090;-77
2022/09/04 10:59:37;;;;;;;0.20;0.20;;;24.90;90.00;;;;;;4251701;33;20100;-76
2022/09/04 11:02:31;;;;;;;0.30;0.30;;;25.30;90.20;;;;;;4263357;33;20069;-77
2022/09/04 11:05:18;;;;;;;0.30;0.30;;;25.30;89.80;;;;;;4263548;33;20582;-76
2022/09/04 11:07:48;;;;;;;0.22;0.22;;;25.50;88.10;;;;;;4267787;33;20094;-77
2022/09/04 11:10:21;;;;;;;0.25;0.25;;;25.40;87.60;;;;;;4265184;33;20100;-77
2022/09/04 11:13:05;;;;;;;0.30;0.30;;;25.20;87.70;;;;;;4263114;33;20573;-77
2022/09/04 11:15:49;;;;;;;0.55;0.43;;;25.40;88.00;;;;;;4268012;33;20382;-77
2022/09/04 11:18:27;;;;;;;0.37;0.37;;;25.60;88.10;;;;;;4252832;33;20084;-77
2022/09/04 11:21:15;;;;;;;0.20;0.20;;;25.80;87.50;;;;;;4265954;33;20073;-77
2022/09/04 11:23:58;;;;;;;0.10;0.10;;;26.00;87.10;;;;;;4254317;33;20073;-77
2022/09/04 11:26:44;;;;;;;0.45;0.32;;;26.30;85.50;;;;;;4264227;33;20484;-77
2022/09/04 11:29:32;;;;;;;0.70;0.50;;;26.30;85.50;;;;;;4254551;33;20138;-77
2022/09/04 11:32:28;;;;;;;0.20;0.20;;;26.30;85.60;;;;;;4262783;33;20077;-77
2022/09/04 11:35:31;;;;;;;0.90;0.70;;;26.40;85.80;;;;;;4263457;33;20463;-78
2022/09/04 11:38:04;;;;;;;0.37;0.37;;;26.60;83.80;;;;;;4263671;33;20069;-77
2022/09/04 11:40:54;;;;;;;0.28;0.28;;;27.10;82.80;;;;;;4265027;33;20630;-78
2022/09/04 11:43:50;;;;;;;0.20;0.20;;;27.30;82.90;;;;;;4252083;33;20077;-77
2022/09/04 11:46:59;;;;;;;0.25;0.25;;;27.20;81.50;;;;;;4254554;33;20085;-77
2022/09/04 11:49:51;;;;;;;0.32;0.32;;;26.90;81.10;;;;;;4256740;33;20077;-78
2022/09/04 11:52:27;;;;;;;0.28;0.17;;;27.10;81.70;;;;;;4263495;33;20077;-77
2022/09/04 11:55:15;;;;;;;0.22;0.22;;;27.40;81.20;;;;;;4264771;33;20548;-78
2022/09/04 11:58:03;;;;;;;0.75;0.55;;;27.50;80.00;;;;;;4250597;33;20077;-78
2022/09/04 12:00:41;;;;;;;1.02;0.40;;;27.60;81.10;;;;;;4265131;33;20065;-78
2022/09/04 12:03:36;;;;;;;0.15;0.13;;;28.00;80.00;;;;;;4266983;33;20072;-78
2022/09/04 12:06:17;;;;;;;0.10;0.10;;;27.70;80.20;;;;;;4254883;33;20065;-78
2022/09/04 12:09:05;;;;;;;1.87;0.30;;;28.00;78.70;;;;;;4264706;33;20085;-78
2022/09/04 12:11:41;;;;;;;0.47;0.30;;;28.20;76.80;;;;;;4254741;33;20069;-78
2022/09/04 12:14:28;;;;;;;0.10;0.10;;;28.20;76.80;;;;;;4260679;33;20100;-77
2022/09/04 12:17:34;;;;;;;0.17;0.13;;;28.20;76.80;;;;;;4250060;33;20108;-77
2022/09/04 12:20:29;;;;;;;0.35;0.32;;;28.60;77.10;;;;;;4245716;33;20072;-77
2022/09/04 12:23:11;;;;;;;1.02;0.28;;;28.70;75.70;;;;;;4265763;33;20131;-77
2022/09/04 12:26:00;;;;;;;0.10;0.10;;;28.80;74.20;;;;;;4264060;33;20069;-79
2022/09/04 12:28:28;;;;;;;0.20;0.20;;;29.00;74.70;;;;;;4252818;33;20126;-78
2022/09/04 12:31:30;;;;;;;0.20;0.20;;;29.30;75.40;;;;;;4266529;33;20096;-78
2022/09/04 12:34:13;;;;;;;0.37;0.30;;;29.50;75.60;;;;;;4264216;33;20142;-78
2022/09/04 12:37:18;;;;;;;3.00;0.82;;;29.60;74.00;;;;;;4264174;33;20128;-77
2022/09/04 12:40:09;;;;;;;0.00;0.00;;;29.70;72.90;;;;;;4259621;33;20093;-78
2022/09/04 12:42:47;;;;;;;2.00;0.40;;;29.70;72.30;;;;;;4254155;33;20113;-78
2022/09/04 12:45:40;;;;;;;0.10;0.10;;;30.10;72.70;;;;;;4269761;33;20533;-77
2022/09/04 12:48:23;;;;;;;0.30;0.30;;;29.90;70.70;;;;;;4253529;33;20514;-78
2022/09/04 12:51:03;;;;;;;4.90;0.35;;;29.60;71.10;;;;;;4264967;33;20081;-78
2022/09/04 12:53:56;;;;;;;0.00;0.00;;;29.90;71.30;;;;;;4264630;33;20114;-79
2022/09/04 12:57:05;;;;;;;0.13;0.13;;;30.60;68.90;;;;;;4254411;33;20154;-78
2022/09/04 12:59:39;;;;;;;0.30;0.30;;;30.80;67.80;;;;;;4238316;33;20439;-77
2022/09/04 13:02:31;;;;;;;0.22;0.10;;;30.80;67.40;;;;;;4268058;33;20505;-78
2022/09/04 13:05:17;;;;;;;0.28;0.28;;;30.90;67.20;;;;;;4266816;33;20073;-77
2022/09/04 13:08:08;;;;;;;0.10;0.10;;;31.10;67.30;;;;;;4267199;33;20073;-78
2022/09/04 13:10:59;;;;;;;4.47;0.55;;;31.20;65.70;;;;;;4256904;33;20064;-77
2022/09/04 13:13:47;;;;;;;1.08;0.22;;;31.00;66.70;;;;;;4257240;33;20093;-78
2022/09/04 13:16:39;;;;;;;0.22;0.20;;;30.70;65.90;;;;;;4256783;33;20082;-77
2022/09/04 13:19:17;;;;;;;0.00;0.00;;;30.40;66.80;;;;;;4255416;33;20072;-78
2022/09/04 13:22:22;;;;;;;0.75;0.50;;;30.00;66.40;;;;;;4266612;33;20436;-78
2022/09/04 13:25:03;;;;;;;0.20;0.20;;;29.80;67.80;;;;;;4255521;33;20065;-78
2022/09/04 13:27:56;;;;;;;0.52;0.20;;;29.50;68.80;;;;;;4259493;33;20139;-77
2022/09/04 13:30:24;;;;;;;0.20;0.20;;;29.30;68.90;;;;;;4257362;33;20126;-77
2022/09/04 13:33:38;;;;;;;6.78;0.85;;;29.00;69.50;;;;;;4266440;33;20123;-78
2022/09/04 13:36:14;;;;;;;0.37;0.37;;;29.10;70.00;;;;;;4255740;33;20101;-77
2022/09/04 13:39:16;;;;;;;0.20;0.20;;;29.10;69.20;;;;;;4267366;33;20538;-77
2022/09/04 13:41:52;;;;;;;0.10;0.10;;;28.70;69.80;;;;;;4256076;33;20555;-77
2022/09/04 13:44:50;;;;;;;0.20;0.20;;;28.40;69.70;;;;;;4263850;33;20069;-77
2022/09/04 13:47:25;;;;;;;0.10;0.10;;;28.40;69.80;;;;;;4254684;33;20138;-77
2022/09/04 13:50:16;;;;;;;0.20;0.20;;;28.30;70.70;;;;;;4267735;33;20077;-77
2022/09/04 13:52:58;;;;;;;0.20;0.20;;;28.00;71.10;;;;;;4254960;33;20089;-77
2022/09/04 13:55:33;;;;;;;0.17;0.17;;;27.70;70.50;;;;;;4266163;33;20073;-77
2022/09/04 13:58:09;;;;;;;0.22;0.20;;;27.30;72.30;;;;;;4252376;33;20092;-77
2022/09/04 14:00:44;;;;;;;0.40;0.40;;;27.30;72.10;;;;;;4266063;33;20090;-77
2022/09/04 14:03:17;;;;;;;0.20;0.20;;;27.10;72.20;;;;;;4265600;33;20132;-77
2022/09/04 14:05:43;;;;;;;0.62;0.43;;;27.10;72.80;;;;;;4265917;33;20084;-77
2022/09/04 14:08:15;;;;;;;4.40;0.40;;;27.30;73.20;;;;;;4266522;33;20089;-77
2022/09/04 14:11:16;;;;;;;0.20;0.20;;;27.10;73.70;;;;;;4267202;33;20082;-77
2022/09/04 14:13:54;;;;;;;;;;;27.50;72.50;;;;;;4254300;33;20481;-77
2022/09/04 14:16:22;;;;;;;0.28;0.28;;;26.90;73.80;;;;;;4266090;33;20007;-77
2022/09/04 14:19:21;;;;;;;0.30;0.30;;;26.60;73.60;;;;;;4265430;33;20138;-77
2022/09/04 14:22:04;;;;;;;0.30;0.30;;;26.50;73.80;;;;;;4260959;33;20077;-77
2022/09/04 14:24:57;;;;;;;0.47;0.47;;;26.20;75.80;;;;;;4264607;33;20097;-77
2022/09/04 14:27:40;;;;;;;0.35;0.35;;;26.20;76.20;;;;;;4246976;33;20073;-77
2022/09/04 14:30:11;;;;;;;0.30;0.30;;;26.10;74.60;;;;;;4259653;33;20101;-77